Walla Walla, Washington
Current Conditions -  °F | °C
As of 8:53 PM on Sunday 19 Oct 2014 (Local Time) from KALW Reporting Station
Clear Clear  
Wind Chill: 56°   Ceiling: Unl
Heat Index: 56°   Visibility: 10mi
Dew Point: 48°   Wind: 8mph
Humidity: 75%   Direction: 90°E
Pressure: 29.73"   Gusts: NA
Location:  46.07°N, 118.34°W
Report Text: KALW 200353Z AUTO 09007KT 10SM CLR 13/09 A2973 RMK AO2 SLP067 T01330089
Loading
Personal Weather Stations






























Interactive Weather Map New forecast layout! Learn more

10-Day Weather Forecast

Advertisements
Track Severe Weather on mobile